Time;durP1;ratioP1;P1;durP2;ratioP2;P2;SDS_P1;SDS_P2;PMS_P1;PMS_P2;Temp;Humidity;BMP_temperature;BMP_pressure;BME280_temperature;BME280_humidity;BME280_pressure;Samples;Min_cycle;Max_cycle;Signal;HPM_P1;HPM_P2
2022/12/21 00:00:20;;;;;;;1.33;0.52;;;11.20;99.90;;;;;;5048708;28;20030;-80
2022/12/21 00:02:46;;;;;;;0.90;0.55;;;11.10;99.90;;;;;;5053699;28;20060;-80
2022/12/21 00:05:12;;;;;;;0.30;0.30;;;11.10;99.90;;;;;;5052415;28;20381;-80
2022/12/21 00:07:38;;;;;;;1.33;0.93;;;11.10;99.90;;;;;;5055579;28;20064;-80
2022/12/21 00:10:04;;;;;;;2.80;1.27;;;11.10;99.90;;;;;;5052105;28;20037;-80
2022/12/21 00:12:30;;;;;;;0.30;0.30;;;11.10;99.90;;;;;;5054250;28;20055;-81
2022/12/21 00:14:56;;;;;;;0.38;0.38;;;11.00;99.90;;;;;;5050626;28;20037;-80
2022/12/21 00:17:21;;;;;;;0.63;0.55;;;11.00;99.90;;;;;;5057731;28;20411;-80
2022/12/21 00:19:47;;;;;;;0.40;0.40;;;10.80;99.90;;;;;;5058863;28;20075;-79
2022/12/21 00:22:13;;;;;;;0.13;0.13;;;10.70;99.90;;;;;;5058848;28;20043;-79
2022/12/21 00:24:38;;;;;;;0.60;0.60;;;10.80;99.90;;;;;;5064016;28;20510;-80
2022/12/21 00:27:04;;;;;;;0.15;0.15;;;10.80;99.90;;;;;;5051677;28;20572;-80
2022/12/21 00:29:30;;;;;;;1.23;1.13;;;10.90;99.90;;;;;;5055105;28;20036;-80
2022/12/21 00:31:55;;;;;;;0.30;0.30;;;10.80;99.90;;;;;;5054192;28;20751;-80
2022/12/21 00:34:21;;;;;;;0.43;0.40;;;10.80;99.90;;;;;;5058832;28;20033;-79
2022/12/21 00:36:48;;;;;;;0.30;0.30;;;10.80;99.90;;;;;;5052354;28;20253;-80
2022/12/21 00:39:15;;;;;;;0.82;0.45;;;10.80;99.90;;;;;;5061364;28;20032;-80
2022/12/21 00:41:41;;;;;;;0.70;0.70;;;10.80;99.90;;;;;;5054102;28;20416;-78
2022/12/21 00:44:07;;;;;;;0.30;0.30;;;10.80;99.90;;;;;;5061263;28;20029;-79
2022/12/21 00:46:34;;;;;;;1.02;0.80;;;10.80;99.90;;;;;;5053521;28;20040;-79
2022/12/21 00:49:03;;;;;;;0.30;0.30;;;10.80;99.90;;;;;;5052993;28;20039;-79
2022/12/21 00:51:30;;;;;;;12.45;1.95;;;10.80;99.90;;;;;;5058073;28;20040;-79
2022/12/21 00:53:58;;;;;;;0.95;0.95;;;10.80;99.90;;;;;;5055739;28;20578;-80
2022/12/21 00:56:25;;;;;;;4.53;1.23;;;10.80;99.90;;;;;;5057760;28;20083;-80
2022/12/21 00:58:51;;;;;;;1.00;0.93;;;10.80;99.90;;;;;;5064651;28;20567;-79
2022/12/21 01:01:22;;;;;;;0.10;0.10;;;10.80;99.90;;;;;;5056954;28;20043;-78
2022/12/21 01:03:48;;;;;;;0.32;0.32;;;10.80;99.90;;;;;;5051514;28;20029;-79
2022/12/21 01:06:34;;;;;;;0.40;0.40;;;10.90;99.90;;;;;;5052804;28;20056;-80
2022/12/21 01:09:00;;;;;;;0.50;0.50;;;10.90;99.90;;;;;;5054271;28;20028;-79
2022/12/21 01:11:28;;;;;;;0.20;0.20;;;11.00;99.90;;;;;;5053409;28;20061;-79
2022/12/21 01:13:55;;;;;;;0.28;0.28;;;10.90;99.90;;;;;;5056832;28;20106;-79
2022/12/21 01:16:27;;;;;;;0.20;0.20;;;10.90;99.90;;;;;;5051759;28;20029;-79
2022/12/21 01:18:53;;;;;;;0.43;0.43;;;11.00;99.90;;;;;;5049512;28;20032;-79
2022/12/21 01:21:22;;;;;;;0.30;0.30;;;11.00;99.90;;;;;;5066717;28;20035;-79
2022/12/21 01:23:48;;;;;;;1.83;0.50;;;11.00;99.90;;;;;;5061782;28;20794;-80
2022/12/21 01:26:14;;;;;;;0.40;0.40;;;11.00;99.90;;;;;;5050064;28;20157;-80
2022/12/21 01:28:40;;;;;;;1.55;0.40;;;11.00;99.90;;;;;;5055043;28;20032;-80
2022/12/21 01:31:06;;;;;;;3.08;1.15;;;11.00;99.90;;;;;;5054580;28;20032;-80
2022/12/21 01:33:32;;;;;;;0.83;0.83;;;11.00;99.90;;;;;;5055880;28;20082;-80
2022/12/21 01:36:03;;;;;;;0.63;0.63;;;11.10;99.90;;;;;;5061754;28;20404;-80
2022/12/21 01:38:29;;;;;;;0.32;0.32;;;11.10;99.90;;;;;;5051638;28;20098;-80
2022/12/21 01:40:55;;;;;;;0.22;0.22;;;11.10;99.90;;;;;;5049701;28;20037;-80
2022/12/21 01:43:42;;;;;;;0.45;0.45;;;11.10;99.90;;;;;;5055663;28;20025;-79
2022/12/21 01:46:36;;;;;;;0.52;0.52;;;11.20;99.90;;;;;;5061375;28;20103;-80
2022/12/21 01:49:10;;;;;;;0.20;0.20;;;11.10;99.90;;;;;;5054175;28;20025;-80
2022/12/21 01:51:37;;;;;;;0.10;0.10;;;11.20;99.90;;;;;;5052767;28;20724;-80
2022/12/21 01:54:18;;;;;;;0.20;0.20;;;11.20;99.90;;;;;;5054394;28;20032;-79
2022/12/21 01:56:48;;;;;;;0.40;0.40;;;11.10;99.90;;;;;;5059944;28;20064;-79
2022/12/21 02:00:00;;;;;;;1.10;0.75;;;11.10;99.90;;;;;;5052967;28;20029;-80
2022/12/21 02:02:35;;;;;;;0.20;0.20;;;11.10;99.90;;;;;;5053158;28;20048;-80
2022/12/21 02:05:16;;;;;;;0.60;0.60;;;11.10;99.90;;;;;;5048612;28;20025;-78
2022/12/21 02:07:43;;;;;;;0.95;0.57;;;11.20;99.90;;;;;;5052581;28;20423;-80
2022/12/21 02:10:09;;;;;;;0.47;0.25;;;11.20;99.90;;;;;;5059169;28;20032;-80
2022/12/21 02:12:35;;;;;;;0.13;0.13;;;11.20;99.90;;;;;;5052953;28;20567;-80
2022/12/21 02:15:01;;;;;;;0.70;0.70;;;11.20;99.90;;;;;;5056402;28;20496;-80
2022/12/21 02:17:46;;;;;;;0.22;0.22;;;11.10;99.90;;;;;;5053081;28;20059;-79
2022/12/21 02:20:45;;;;;;;0.60;0.60;;;11.10;99.90;;;;;;5051258;28;20025;-79
2022/12/21 02:23:35;;;;;;;1.48;1.38;;;11.10;99.90;;;;;;5060122;28;20031;-78
2022/12/21 02:26:21;;;;;;;1.20;1.05;;;11.20;99.90;;;;;;5062353;28;20040;-79
2022/12/21 02:29:14;;;;;;;0.15;0.15;;;11.20;99.90;;;;;;5043588;28;20063;-79
2022/12/21 02:32:16;;;;;;;0.22;0.22;;;11.20;99.90;;;;;;5056907;28;20033;-79
2022/12/21 02:34:41;;;;;;;0.25;0.25;;;11.20;99.90;;;;;;5057276;28;20036;-78
2022/12/21 02:37:25;;;;;;;0.20;0.20;;;11.20;99.90;;;;;;5056852;28;20116;-79
2022/12/21 02:40:21;;;;;;;0.77;0.77;;;11.20;99.90;;;;;;5051588;28;20021;-80
2022/12/21 02:46:13;;;;;;;0.20;0.20;;;11.10;99.90;;;;;;5060793;28;20048;-79
2022/12/21 02:48:57;;;;;;;2.78;2.08;;;11.00;99.90;;;;;;5057008;28;20827;-79
2022/12/21 02:51:34;;;;;;;0.17;0.17;;;11.00;99.90;;;;;;5056413;28;20028;-79
2022/12/21 02:54:01;;;;;;;0.52;0.52;;;11.00;99.90;;;;;;5064994;28;20090;-79
2022/12/21 02:56:27;;;;;;;;;;;11.00;99.90;;;;;;5060742;28;20053;-79
2022/12/21 02:58:52;;;;;;;0.10;0.10;;;11.00;99.90;;;;;;5058706;28;20712;-79
2022/12/21 03:01:49;;;;;;;0.30;0.30;;;11.00;99.90;;;;;;5061269;28;20066;-79
2022/12/21 03:04:24;;;;;;;0.10;0.10;;;11.00;99.90;;;;;;5048132;28;20029;-79
2022/12/21 03:07:02;;;;;;;0.10;0.10;;;11.10;99.90;;;;;;5063264;28;20056;-79
2022/12/21 03:09:48;;;;;;;0.35;0.35;;;11.10;99.90;;;;;;5060411;28;20029;-79
2022/12/21 03:12:19;;;;;;;0.45;0.45;;;11.10;99.90;;;;;;5012708;28;20049;-80
2022/12/21 03:14:58;;;;;;;0.10;0.10;;;11.20;99.90;;;;;;5048704;28;20084;-80
2022/12/21 03:17:45;;;;;;;0.15;0.15;;;11.20;99.90;;;;;;5051169;28;20024;-80
2022/12/21 03:20:28;;;;;;;0.40;0.40;;;11.20;99.90;;;;;;5048588;28;20054;-80
2022/12/21 03:23:06;;;;;;;0.28;0.28;;;11.20;99.90;;;;;;5059997;28;20024;-80
2022/12/21 03:25:43;;;;;;;0.10;0.10;;;11.20;99.90;;;;;;5055631;28;20032;-81
2022/12/21 03:28:16;;;;;;;0.20;0.20;;;11.20;99.90;;;;;;5057343;28;20144;-80
2022/12/21 03:30:46;;;;;;;0.22;0.22;;;11.20;99.90;;;;;;5053662;28;20092;-80
2022/12/21 03:33:17;;;;;;;0.28;0.28;;;11.20;99.90;;;;;;5053953;28;20029;-80
2022/12/21 03:35:51;;;;;;;0.10;0.10;;;11.20;99.90;;;;;;5054437;28;20063;-80
2022/12/21 03:38:26;;;;;;;0.20;0.20;;;11.10;99.90;;;;;;5054602;28;20507;-80
2022/12/21 03:40:55;;;;;;;0.22;0.22;;;11.00;99.90;;;;;;5050576;28;20045;-80
2022/12/21 03:43:28;;;;;;;1.00;0.80;;;11.00;99.90;;;;;;5050145;28;20065;-80
2022/12/21 03:46:05;;;;;;;0.28;0.25;;;10.90;99.90;;;;;;5056260;28;20120;-80
2022/12/21 03:48:43;;;;;;;0.98;0.28;;;11.00;99.90;;;;;;5056211;28;20035;-80
2022/12/21 03:51:38;;;;;;;0.30;0.30;;;11.00;99.90;;;;;;5047512;28;20029;-79
2022/12/21 03:54:10;;;;;;;0.50;0.50;;;10.90;99.90;;;;;;5050781;28;20127;-80
2022/12/21 03:56:38;;;;;;;0.50;0.50;;;11.00;99.90;;;;;;5051686;28;20670;-80
2022/12/21 03:59:05;;;;;;;0.40;0.40;;;11.00;99.90;;;;;;5057617;28;20025;-80
2022/12/21 04:01:46;;;;;;;0.50;0.50;;;11.00;99.90;;;;;;5085630;28;20031;-80
2022/12/21 04:04:31;;;;;;;1.00;0.47;;;10.90;99.90;;;;;;5063427;28;20807;-80
2022/12/21 04:07:00;;;;;;;0.57;0.25;;;11.00;99.90;;;;;;5054709;28;20120;-80
2022/12/21 04:09:26;;;;;;;0.17;0.17;;;10.90;99.90;;;;;;5058686;28;20782;-81
2022/12/21 04:14:37;;;;;;;0.95;0.25;;;10.70;99.90;;;;;;5055397;28;20149;-79
2022/12/21 04:17:03;;;;;;;0.70;0.68;;;10.70;99.90;;;;;;5063283;28;20033;-80
2022/12/21 04:28:06;;;;;;;0.28;0.28;;;10.70;99.90;;;;;;5073917;28;20071;-81
2022/12/21 04:30:27;;;;;;;0.20;0.20;;;10.50;99.90;;;;;;5054567;28;20063;-81
2022/12/21 04:32:53;;;;;;;0.22;0.22;;;10.60;99.90;;;;;;5058005;28;20033;-81
2022/12/21 04:35:19;;;;;;;0.15;0.15;;;10.70;99.90;;;;;;5063486;28;20107;-81
2022/12/21 04:37:44;;;;;;;0.10;0.10;;;10.60;99.90;;;;;;5053787;28;20033;-81
2022/12/21 04:40:10;;;;;;;1.65;0.30;;;10.60;99.90;;;;;;5066852;28;20059;-81
2022/12/21 04:42:38;;;;;;;0.13;0.13;;;10.70;99.90;;;;;;5058714;28;20534;-81
2022/12/21 04:45:05;;;;;;;0.20;0.20;;;10.80;99.90;;;;;;5056207;28;20024;-79
2022/12/21 04:47:30;;;;;;;0.63;0.63;;;10.80;99.90;;;;;;5055090;28;20025;-81
2022/12/21 04:49:56;;;;;;;0.15;0.15;;;10.70;99.90;;;;;;5062597;28;20274;-81
2022/12/21 04:52:21;;;;;;;0.55;0.40;;;10.80;99.90;;;;;;5058254;28;20446;-80
2022/12/21 04:54:47;;;;;;;8.55;1.38;;;10.80;99.90;;;;;;5050919;28;20037;-80
2022/12/21 04:57:13;;;;;;;0.45;0.30;;;10.90;99.90;;;;;;5064111;28;20036;-80
2022/12/21 04:59:39;;;;;;;0.10;0.10;;;10.80;99.90;;;;;;5054759;28;20060;-80
2022/12/21 05:02:04;;;;;;;0.20;0.20;;;10.80;99.90;;;;;;5066601;28;20024;-80
2022/12/21 05:04:30;;;;;;;0.30;0.30;;;10.70;99.90;;;;;;5067896;28;20040;-80
2022/12/21 05:06:56;;;;;;;2.42;1.08;;;10.60;99.90;;;;;;5056509;28;20545;-81
2022/12/21 05:09:22;;;;;;;0.10;0.10;;;10.60;99.90;;;;;;5061050;28;20040;-81
2022/12/21 05:11:48;;;;;;;0.40;0.40;;;10.70;99.90;;;;;;5056842;28;20519;-80
2022/12/21 05:14:14;;;;;;;0.10;0.10;;;10.70;99.90;;;;;;5053966;28;20040;-80
2022/12/21 05:16:40;;;;;;;0.15;0.15;;;10.70;99.90;;;;;;5050051;28;20059;-81
2022/12/21 05:19:06;;;;;;;0.20;0.20;;;10.60;99.90;;;;;;5059176;28;20424;-81
2022/12/21 05:21:32;;;;;;;0.25;0.25;;;10.30;99.90;;;;;;5061975;28;20024;-81
2022/12/21 05:23:58;;;;;;;0.43;0.43;;;10.10;99.90;;;;;;5060050;28;20076;-81
2022/12/21 05:26:23;;;;;;;0.13;0.13;;;9.90;99.90;;;;;;5066545;28;20931;-81
2022/12/21 05:28:49;;;;;;;0.43;0.40;;;9.90;99.90;;;;;;5062706;28;20032;-81
2022/12/21 05:31:16;;;;;;;0.10;0.10;;;9.80;99.90;;;;;;5059657;28;20032;-80
2022/12/21 05:33:42;;;;;;;0.20;0.20;;;9.70;99.90;;;;;;5054600;28;20040;-81
2022/12/21 05:36:11;;;;;;;0.20;0.20;;;9.60;99.90;;;;;;5057253;28;20033;-81
2022/12/21 05:38:36;;;;;;;1.75;0.93;;;9.60;99.90;;;;;;5060123;28;20021;-81
2022/12/21 05:41:03;;;;;;;0.22;0.22;;;9.60;99.90;;;;;;5051740;28;20056;-81
2022/12/21 05:43:29;;;;;;;;;;;9.60;99.90;;;;;;5052910;28;20029;-82
2022/12/21 05:46:01;;;;;;;0.15;0.15;;;9.50;99.90;;;;;;5049163;28;19916;-82
2022/12/21 05:48:27;;;;;;;0.10;0.10;;;9.50;99.90;;;;;;5057370;28;20063;-81
2022/12/21 05:50:52;;;;;;;0.30;0.30;;;9.40;99.90;;;;;;5050266;28;20507;-81
2022/12/21 05:53:18;;;;;;;0.15;0.15;;;9.30;99.90;;;;;;5052803;28;20136;-81
2022/12/21 05:55:47;;;;;;;0.40;0.40;;;9.30;99.90;;;;;;5056479;28;20032;-81
2022/12/21 05:58:14;;;;;;;0.50;0.50;;;9.30;99.90;;;;;;5062559;28;20032;-81
2022/12/21 06:00:40;;;;;;;0.35;0.35;;;9.30;99.90;;;;;;5059424;28;20029;-80
2022/12/21 06:03:06;;;;;;;0.10;0.10;;;9.20;99.90;;;;;;5051306;28;20041;-81
2022/12/21 06:05:36;;;;;;;0.10;0.10;;;9.10;99.90;;;;;;5060382;28;20136;-81
2022/12/21 06:08:02;;;;;;;0.20;0.20;;;9.10;99.90;;;;;;5064186;28;20279;-82
2022/12/21 06:10:28;;;;;;;4.32;0.55;;;9.10;99.90;;;;;;5052046;28;20036;-82
2022/12/21 06:12:54;;;;;;;0.50;0.43;;;9.00;99.90;;;;;;5051055;28;20033;-82
2022/12/21 06:15:19;;;;;;;0.10;0.10;;;9.00;99.90;;;;;;5050902;28;20087;-82
2022/12/21 06:17:45;;;;;;;0.47;0.32;;;9.00;99.90;;;;;;5057514;28;20805;-83
2022/12/21 06:20:11;;;;;;;0.40;0.40;;;9.00;99.90;;;;;;5060193;28;20100;-83
2022/12/21 06:22:37;;;;;;;0.25;0.25;;;9.00;99.90;;;;;;5055347;28;20108;-81
2022/12/21 06:25:03;;;;;;;0.30;0.30;;;9.10;99.90;;;;;;5061485;28;20325;-81
2022/12/21 06:27:29;;;;;;;0.15;0.15;;;9.10;99.90;;;;;;5051420;28;20043;-81
2022/12/21 06:29:54;;;;;;;0.50;0.40;;;9.40;99.90;;;;;;5055031;28;20037;-82
2022/12/21 06:32:20;;;;;;;0.40;0.40;;;9.60;99.90;;;;;;5058002;28;20474;-82
2022/12/21 06:34:46;;;;;;;6.05;1.08;;;9.80;99.90;;;;;;5050744;28;20116;-82
2022/12/21 06:37:11;;;;;;;0.70;0.70;;;9.90;99.90;;;;;;5056504;28;20029;-82
2022/12/21 06:39:37;;;;;;;0.30;0.30;;;9.90;99.90;;;;;;5061253;28;20039;-82
2022/12/21 06:42:03;;;;;;;0.20;0.20;;;9.90;99.90;;;;;;5056801;28;20029;-82
2022/12/21 06:44:29;;;;;;;0.10;0.10;;;9.70;99.90;;;;;;5051888;28;20193;-81
2022/12/21 06:46:55;;;;;;;0.30;0.30;;;9.50;99.90;;;;;;5053642;28;20097;-82
2022/12/21 06:49:20;;;;;;;0.30;0.30;;;9.30;99.90;;;;;;5050294;28;20032;-81
2022/12/21 06:51:46;;;;;;;1.90;1.80;;;9.20;99.90;;;;;;5048468;28;20048;-82
2022/12/21 06:54:12;;;;;;;1.02;1.00;;;9.10;99.90;;;;;;5062465;28;20496;-82
2022/12/21 06:56:38;;;;;;;0.55;0.55;;;9.00;99.90;;;;;;5063047;28;20109;-82
2022/12/21 06:59:03;;;;;;;0.87;0.80;;;9.00;99.90;;;;;;5067117;28;20072;-81
2022/12/21 07:01:32;;;;;;;0.30;0.30;;;8.90;99.90;;;;;;5066258;28;20029;-81
2022/12/21 07:03:59;;;;;;;0.43;0.43;;;8.90;99.90;;;;;;5064624;28;20020;-81
2022/12/21 07:06:26;;;;;;;0.50;0.50;;;8.90;99.90;;;;;;5065634;28;20079;-80
2022/12/21 07:08:52;;;;;;;1.02;0.93;;;8.80;99.90;;;;;;5062715;28;20115;-82
2022/12/21 07:11:21;;;;;;;0.45;0.45;;;8.90;99.90;;;;;;5065109;28;20039;-81
2022/12/21 07:13:48;;;;;;;1.38;1.27;;;8.80;99.90;;;;;;5059795;28;20119;-81
2022/12/21 07:16:14;;;;;;;;;;;8.80;99.90;;;;;;5061092;28;20024;-81
2022/12/21 07:18:41;;;;;;;3.60;3.35;;;8.80;99.90;;;;;;5064086;28;20388;-80
2022/12/21 07:21:11;;;;;;;4.43;3.58;;;8.90;99.90;;;;;;5059841;28;20039;-82
2022/12/21 07:23:38;;;;;;;2.15;1.95;;;9.00;99.90;;;;;;5063270;28;20035;-85
2022/12/21 07:26:14;;;;;;;9.60;4.50;;;8.80;99.90;;;;;;5053140;28;20036;-85
2022/12/21 07:28:43;;;;;;;6.78;3.05;;;8.80;99.90;;;;;;5061821;28;20032;-84
2022/12/21 07:31:11;;;;;;;9.05;2.60;;;8.70;99.90;;;;;;5055938;28;20048;-84
2022/12/21 07:33:40;;;;;;;3.47;1.88;;;8.80;99.90;;;;;;5057746;28;20051;-84
2022/12/21 07:36:06;;;;;;;2.95;2.53;;;9.10;99.90;;;;;;5059290;28;20074;-84
2022/12/21 07:38:34;;;;;;;1.40;1.30;;;9.30;99.90;;;;;;5056069;28;20108;-83
2022/12/21 07:41:01;;;;;;;4.90;2.08;;;9.50;99.90;;;;;;5055381;28;20048;-83
2022/12/21 07:43:27;;;;;;;0.85;0.85;;;9.50;99.90;;;;;;5062382;28;20021;-84
2022/12/21 07:45:53;;;;;;;0.40;0.40;;;9.30;99.90;;;;;;5053180;28;20095;-83
2022/12/21 07:48:19;;;;;;;0.30;0.30;;;9.30;99.90;;;;;;5053885;28;20033;-84
2022/12/21 07:50:49;;;;;;;5.20;2.13;;;9.20;99.90;;;;;;5052991;28;20381;-82
2022/12/21 07:53:15;;;;;;;1.00;0.98;;;9.20;99.90;;;;;;5057123;28;20086;-83
2022/12/21 07:55:40;;;;;;;0.68;0.68;;;9.00;99.90;;;;;;5066195;28;20036;-81
2022/12/21 07:58:06;;;;;;;0.57;0.57;;;9.00;99.90;;;;;;5066376;28;20883;-81
2022/12/21 08:00:32;;;;;;;0.30;0.30;;;8.90;99.90;;;;;;5065790;28;20142;-82
2022/12/21 08:02:58;;;;;;;0.20;0.20;;;8.90;99.90;;;;;;5065135;28;20028;-81
2022/12/21 08:05:23;;;;;;;0.10;0.10;;;8.80;99.90;;;;;;5063467;28;20086;-81
2022/12/21 08:07:49;;;;;;;0.30;0.30;;;9.00;99.90;;;;;;5066448;28;20059;-81
2022/12/21 08:10:16;;;;;;;0.25;0.25;;;9.10;99.90;;;;;;5053839;28;20144;-82
2022/12/21 08:12:41;;;;;;;0.22;0.22;;;9.10;99.90;;;;;;5056680;28;20964;-84
2022/12/21 08:15:08;;;;;;;0.10;0.10;;;9.30;99.90;;;;;;5060790;28;20040;-83
2022/12/21 08:17:33;;;;;;;0.25;0.25;;;9.30;99.90;;;;;;5062133;28;20021;-83
2022/12/21 08:19:59;;;;;;;0.20;0.20;;;9.40;99.90;;;;;;5065198;28;20059;-82
2022/12/21 08:22:25;;;;;;;0.08;0.08;;;9.60;99.90;;;;;;5061166;28;20127;-80
2022/12/21 08:24:51;;;;;;;0.55;0.55;;;9.50;99.90;;;;;;5059570;28;20033;-81
2022/12/21 08:27:16;;;;;;;0.70;0.70;;;9.60;99.90;;;;;;5048414;28;20103;-82
2022/12/21 08:29:43;;;;;;;0.80;0.80;;;9.70;99.90;;;;;;5046961;28;20040;-82
2022/12/21 08:32:08;;;;;;;1.10;0.93;;;9.60;99.90;;;;;;5048322;28;20546;-81
2022/12/21 08:34:34;;;;;;;0.57;0.57;;;10.00;99.90;;;;;;5052411;28;20112;-81
2022/12/21 08:37:00;;;;;;;0.10;0.10;;;10.20;99.90;;;;;;5047933;28;20029;-83
2022/12/21 08:39:26;;;;;;;0.20;0.20;;;10.30;99.90;;;;;;5058792;28;20040;-81
2022/12/21 08:41:52;;;;;;;1.05;1.05;;;10.20;99.90;;;;;;5051841;28;20029;-83
2022/12/21 08:44:18;;;;;;;0.70;0.70;;;10.70;99.90;;;;;;5049033;28;20044;-83
2022/12/21 08:46:44;;;;;;;0.20;0.20;;;10.90;99.90;;;;;;5052452;28;20100;-88
2022/12/21 08:49:10;;;;;;;0.70;0.55;;;10.70;99.90;;;;;;5063806;28;20579;-86
2022/12/21 08:51:37;;;;;;;0.22;0.22;;;10.30;99.90;;;;;;5063713;28;20029;-86
2022/12/21 08:54:04;;;;;;;13.32;1.55;;;10.20;99.90;;;;;;5066710;28;20060;-87
2022/12/21 08:56:30;;;;;;;0.10;0.10;;;10.20;99.90;;;;;;5067111;28;20240;-85
2022/12/21 08:59:03;;;;;;;0.10;0.10;;;10.40;99.90;;;;;;5063640;28;20063;-84
2022/12/21 09:01:29;;;;;;;0.43;0.40;;;10.70;99.90;;;;;;5066425;28;20102;-84
2022/12/21 09:03:55;;;;;;;0.10;0.10;;;11.20;99.90;;;;;;5067960;28;20221;-84
2022/12/21 09:06:21;;;;;;;0.15;0.15;;;11.60;99.90;;;;;;5068333;28;20290;-83
2022/12/21 09:08:47;;;;;;;0.10;0.10;;;11.70;99.90;;;;;;5069921;28;20035;-84
2022/12/21 09:11:14;;;;;;;;;;;11.90;99.90;;;;;;5048127;28;20772;-82
2022/12/21 09:13:40;;;;;;;8.98;0.43;;;11.70;99.90;;;;;;5060416;28;19912;-82
2022/12/21 09:16:19;;;;;;;0.20;0.20;;;11.50;99.90;;;;;;5059532;28;20044;-82
2022/12/21 09:18:45;;;;;;;0.10;0.10;;;11.30;99.90;;;;;;5053853;28;20212;-81
2022/12/21 09:21:13;;;;;;;0.47;0.47;;;11.10;99.90;;;;;;5060492;28;20044;-83
2022/12/21 09:23:38;;;;;;;21.77;0.68;;;11.40;99.90;;;;;;5067073;28;20338;-81
2022/12/21 09:26:05;;;;;;;0.10;0.10;;;11.10;99.90;;;;;;5069108;28;20105;-82
2022/12/21 09:28:31;;;;;;;;;;;11.40;99.90;;;;;;5064099;28;20401;-82
2022/12/21 09:31:23;;;;;;;0.20;0.20;;;11.60;99.90;;;;;;5051262;28;19912;-83
2022/12/21 09:33:50;;;;;;;0.10;0.10;;;11.80;99.90;;;;;;5059134;28;20793;-85
2022/12/21 09:36:16;;;;;;;1.15;0.30;;;12.10;99.90;;;;;;5066303;28;20043;-82
2022/12/21 09:38:43;;;;;;;0.10;0.10;;;12.30;99.90;;;;;;5065779;28;20843;-81
2022/12/21 09:41:17;;;;;;;0.13;0.13;;;12.50;99.90;;;;;;5058815;28;20044;-84
2022/12/21 09:44:09;;;;;;;0.10;0.10;;;12.60;99.90;;;;;;5056189;28;20037;-84
2022/12/21 09:46:42;;;;;;;0.00;0.00;;;12.30;99.90;;;;;;5065633;28;20035;-81
2022/12/21 09:49:16;;;;;;;0.20;0.20;;;12.10;99.90;;;;;;5065012;28;20108;-81
2022/12/21 09:51:53;;;;;;;0.85;0.85;;;11.70;99.90;;;;;;5052489;28;20123;-81
2022/12/21 09:54:23;;;;;;;5.93;0.30;;;11.80;99.90;;;;;;5076913;28;20040;-83
2022/12/21 09:56:52;;;;;;;0.10;0.10;;;11.90;99.90;;;;;;5059946;28;20065;-82
2022/12/21 09:59:20;;;;;;;0.50;0.50;;;11.90;99.90;;;;;;5065429;28;20051;-81
2022/12/21 10:01:58;;;;;;;0.43;0.40;;;11.80;99.90;;;;;;5055668;28;20150;-80
2022/12/21 10:04:49;;;;;;;0.10;0.10;;;11.60;99.90;;;;;;5066654;28;20039;-81
2022/12/21 10:07:26;;;;;;;0.20;0.20;;;11.40;99.90;;;;;;5062922;28;20048;-82
2022/12/21 10:10:00;;;;;;;7.47;0.57;;;11.30;99.90;;;;;;5063687;28;20418;-82
2022/12/21 10:12:50;;;;;;;0.20;0.20;;;11.10;99.90;;;;;;5066502;28;20024;-81
2022/12/21 10:15:45;;;;;;;0.35;0.35;;;11.20;99.90;;;;;;5066960;28;20900;-81
2022/12/21 10:18:32;;;;;;;0.10;0.10;;;11.40;99.90;;;;;;5051303;28;20051;-82
2022/12/21 10:21:31;;;;;;;0.10;0.10;;;11.40;99.90;;;;;;5066310;28;20086;-82
2022/12/21 10:23:57;;;;;;;0.10;0.10;;;11.40;99.90;;;;;;5046522;28;20033;-82
2022/12/21 10:26:27;;;;;;;0.30;0.30;;;11.60;99.90;;;;;;5063705;28;20025;-81
2022/12/21 10:29:05;;;;;;;0.20;0.20;;;12.00;99.90;;;;;;5052635;28;20025;-81
2022/12/21 10:31:40;;;;;;;0.55;0.45;;;12.30;99.90;;;;;;5065274;28;20045;-81
2022/12/21 10:34:18;;;;;;;0.10;0.10;;;12.40;99.90;;;;;;5066405;28;20028;-81
2022/12/21 10:36:46;;;;;;;0.10;0.10;;;12.30;99.90;;;;;;5066367;28;20053;-78
2022/12/21 10:39:16;;;;;;;0.20;0.20;;;12.50;99.90;;;;;;5057701;28;20032;-81
2022/12/21 10:41:54;;;;;;;0.10;0.10;;;11.90;99.90;;;;;;5067593;28;20033;-82
2022/12/21 10:44:20;;;;;;;0.05;0.05;;;11.40;99.90;;;;;;5065840;28;20090;-80
2022/12/21 10:46:47;;;;;;;0.20;0.20;;;11.30;99.90;;;;;;5066552;28;20028;-80
2022/12/21 10:49:23;;;;;;;0.00;0.00;;;11.70;99.90;;;;;;5067455;28;20029;-81
2022/12/21 10:51:49;;;;;;;;;;;12.30;99.90;;;;;;5065052;28;20086;-81
2022/12/21 10:54:25;;;;;;;0.10;0.10;;;12.40;99.90;;;;;;5066125;28;19908;-81
2022/12/21 10:56:51;;;;;;;6.25;0.38;;;12.30;99.90;;;;;;5064326;28;20021;-81
2022/12/21 10:59:29;;;;;;;0.10;0.10;;;12.20;99.90;;;;;;5065258;28;20067;-80
2022/12/21 11:01:55;;;;;;;0.10;0.10;;;12.20;99.90;;;;;;5064608;28;20037;-80
2022/12/21 11:04:21;;;;;;;0.03;0.03;;;12.20;99.90;;;;;;5064625;28;20046;-81
2022/12/21 11:07:04;;;;;;;0.20;0.20;;;12.20;99.90;;;;;;5062449;28;21013;-80
2022/12/21 11:09:33;;;;;;;0.25;0.22;;;12.20;99.90;;;;;;5059722;28;20083;-81
2022/12/21 11:12:19;;;;;;;0.00;0.00;;;12.10;99.90;;;;;;5060537;28;20862;-81
2022/12/21 11:14:45;;;;;;;0.25;0.25;;;12.00;99.90;;;;;;5057688;28;20046;-81
2022/12/21 11:17:25;;;;;;;3.28;0.73;;;12.10;99.90;;;;;;5060417;28;20773;-81
2022/12/21 11:20:13;;;;;;;0.00;0.00;;;12.10;99.90;;;;;;5054572;28;20029;-81
2022/12/21 11:22:42;;;;;;;0.38;0.38;;;12.20;99.90;;;;;;5057337;28;20028;-80
2022/12/21 11:25:18;;;;;;;0.00;0.00;;;12.20;99.90;;;;;;5052665;28;20086;-81
2022/12/21 11:27:46;;;;;;;0.20;0.20;;;12.30;99.90;;;;;;5059276;28;20507;-80
2022/12/21 11:30:21;;;;;;;0.10;0.10;;;12.30;99.90;;;;;;5055585;28;20029;-80
2022/12/21 11:32:49;;;;;;;0.10;0.10;;;12.30;99.90;;;;;;5058832;28;20396;-81
2022/12/21 11:35:25;;;;;;;0.55;0.55;;;12.20;99.90;;;;;;5061720;28;20777;-80
2022/12/21 11:37:53;;;;;;;0.20;0.20;;;12.20;99.90;;;;;;5050184;28;20055;-81
2022/12/21 11:40:22;;;;;;;0.20;0.20;;;12.00;99.90;;;;;;5047983;28;20035;-81
2022/12/21 11:43:00;;;;;;;0.20;0.20;;;12.00;99.90;;;;;;5050321;28;20029;-81
2022/12/21 11:45:48;;;;;;;0.03;0.03;;;12.10;99.90;;;;;;5052191;28;20025;-80
2022/12/21 11:48:44;;;;;;;0.08;0.08;;;12.10;99.90;;;;;;5061692;28;20028;-80
2022/12/21 11:51:09;;;;;;;0.52;0.52;;;12.10;99.90;;;;;;5051306;28;20396;-80
2022/12/21 11:53:50;;;;;;;0.20;0.20;;;11.90;99.90;;;;;;5054515;28;20036;-80
2022/12/21 11:56:32;;;;;;;0.15;0.15;;;11.70;99.90;;;;;;5049951;28;20670;-80
2022/12/21 11:59:09;;;;;;;0.00;0.00;;;11.80;99.90;;;;;;5056447;28;20033;-80
2022/12/21 12:01:58;;;;;;;0.17;0.17;;;11.70;99.90;;;;;;5054595;28;20794;-81
2022/12/21 12:04:41;;;;;;;0.10;0.10;;;11.70;99.90;;;;;;5042185;28;20032;-79
2022/12/21 12:07:36;;;;;;;0.15;0.10;;;11.90;99.90;;;;;;5062830;28;20045;-80
2022/12/21 12:10:27;;;;;;;0.10;0.10;;;11.90;99.90;;;;;;5075910;28;20040;-80
2022/12/21 12:13:29;;;;;;;4.60;1.75;;;11.90;99.90;;;;;;5057872;28;20402;-80
2022/12/21 12:16:01;;;;;;;0.10;0.10;;;11.90;99.90;;;;;;5052460;28;20040;-80
2022/12/21 12:18:30;;;;;;;0.10;0.10;;;11.90;99.90;;;;;;5052359;28;20021;-80
2022/12/21 12:21:14;;;;;;;0.68;0.55;;;11.80;99.90;;;;;;5061390;28;20032;-80
2022/12/21 12:23:58;;;;;;;0.57;0.20;;;12.00;99.90;;;;;;5053854;28;20078;-80
2022/12/21 12:26:53;;;;;;;1.10;0.85;;;12.20;99.90;;;;;;5057067;28;20038;-80
2022/12/21 12:30:23;;;;;;;0.10;0.10;;;12.30;99.90;;;;;;5055874;28;20511;-80
2022/12/21 12:33:05;;;;;;;0.00;0.00;;;12.40;99.90;;;;;;5025471;28;20120;-80
2022/12/21 12:35:49;;;;;;;0.20;0.20;;;12.60;99.90;;;;;;5050783;28;20039;-80
2022/12/21 12:38:32;;;;;;;0.10;0.10;;;12.50;99.90;;;;;;5055704;28;20110;-80
2022/12/21 12:41:23;;;;;;;0.57;0.57;;;12.40;99.90;;;;;;5057085;28;20025;-80
2022/12/21 12:44:01;;;;;;;0.00;0.00;;;12.30;99.90;;;;;;5051857;28;20021;-80
2022/12/21 12:46:42;;;;;;;0.10;0.10;;;12.40;99.90;;;;;;5053841;28;20645;-80
2022/12/21 12:49:11;;;;;;;0.15;0.15;;;12.30;99.90;;;;;;5050100;28;20627;-80
2022/12/21 12:51:39;;;;;;;0.10;0.10;;;12.50;99.90;;;;;;5069792;28;20185;-80
2022/12/21 12:54:17;;;;;;;0.00;0.00;;;12.60;99.90;;;;;;5053450;28;20036;-80
2022/12/21 12:56:59;;;;;;;0.10;0.10;;;12.80;99.90;;;;;;5057754;28;20024;-80
2022/12/21 12:59:42;;;;;;;0.28;0.28;;;12.90;99.90;;;;;;5058973;28;20559;-80
2022/12/21 13:02:10;;;;;;;3.58;0.63;;;12.90;99.90;;;;;;5068566;28;20032;-80
2022/12/21 13:05:08;;;;;;;0.10;0.10;;;12.40;99.90;;;;;;5068256;28;20107;-80
2022/12/21 13:07:46;;;;;;;0.20;0.20;;;12.40;99.90;;;;;;5053506;28;20040;-80
2022/12/21 13:10:56;;;;;;;0.20;0.20;;;12.50;99.90;;;;;;5053012;28;20040;-80
2022/12/21 13:14:02;;;;;;;0.08;0.08;;;12.60;99.90;;;;;;5065201;28;20467;-80
2022/12/21 13:16:57;;;;;;;0.38;0.38;;;12.50;99.90;;;;;;5053164;28;20136;-80
2022/12/21 13:19:27;;;;;;;0.17;0.17;;;12.50;99.90;;;;;;5032388;28;20094;-79
2022/12/21 13:21:58;;;;;;;0.10;0.10;;;12.50;99.90;;;;;;5055951;28;20511;-80
2022/12/21 13:24:42;;;;;;;0.35;0.35;;;12.30;99.90;;;;;;5067142;28;20045;-80
2022/12/21 13:27:18;;;;;;;0.10;0.10;;;12.10;99.90;;;;;;5057380;28;20165;-80
2022/12/21 13:30:18;;;;;;;0.22;0.22;;;12.20;99.90;;;;;;5062305;28;20040;-79